Otis, Colorado
Current Conditions -  °F | °C
As of 4:53 AM on Sunday 23 Nov 2014 (Local Time) from KAKO Reporting Station
Few Clouds Few Clouds  
Wind Chill: 26°   Ceiling: Unl
Heat Index: 36°   Visibility: 10mi
Dew Point: 21°   Wind: 18mph
Humidity: 55%   Direction: 350°N
Pressure: 29.67"   Gusts: NA
Location:  40.15°N, 102.96°W
Report Text: KAKO 231153Z AUTO 35016KT 10SM FEW120 02/M06 A2967 RMK AO2 PK WND 35029/1055 SLP041 T00221061 10078 20022 51020
Loading
Personal Weather Stations






























Interactive Weather Map New forecast layout! Learn more

10-Day Weather Forecast

Advertisements
Track Severe Weather on mobile